Time;durP1;ratioP1;P1;durP2;ratioP2;P2;SDS_P1;SDS_P2;PMS_P1;PMS_P2;Temp;Humidity;BMP_temperature;BMP_pressure;BME280_temperature;BME280_humidity;BME280_pressure;Samples;Min_cycle;Max_cycle;Signal;HPM_P1;HPM_P2
2021/09/17 00:02:09;;;;;;;19.13;16.55;;;18.20;99.90;;;;;;5045994;28;20663;-64
2021/09/17 00:04:36;;;;;;;23.77;17.67;;;18.20;99.90;;;;;;5031745;28;20210;-65
2021/09/17 00:07:03;;;;;;;21.63;18.80;;;18.20;99.90;;;;;;5031626;28;20226;-65
2021/09/17 00:09:31;;;;;;;21.93;18.53;;;18.20;99.90;;;;;;5042154;28;20670;-64
2021/09/17 00:12:00;;;;;;;22.75;19.65;;;18.20;99.90;;;;;;5031923;28;20233;-64
2021/09/17 00:14:26;;;;;;;24.42;21.15;;;18.20;99.90;;;;;;5032039;28;20419;-64
2021/09/17 00:16:53;;;;;;;24.25;20.80;;;18.20;99.90;;;;;;5032140;28;20652;-64
2021/09/17 00:19:20;;;;;;;24.70;21.48;;;18.20;99.90;;;;;;5042006;28;20206;-64
2021/09/17 00:21:47;;;;;;;28.25;22.30;;;18.20;99.90;;;;;;5036881;28;20194;-63
2021/09/17 00:24:13;;;;;;;28.50;23.48;;;18.10;99.90;;;;;;5037569;28;20675;-64
2021/09/17 00:26:42;;;;;;;26.85;21.83;;;18.10;99.90;;;;;;5031752;28;20443;-65
2021/09/17 00:29:08;;;;;;;29.08;20.85;;;18.10;99.90;;;;;;5032099;28;20214;-64
2021/09/17 00:31:35;;;;;;;26.38;21.50;;;18.10;99.90;;;;;;5031671;28;20673;-64
2021/09/17 00:34:02;;;;;;;26.05;21.33;;;18.10;99.90;;;;;;5031323;28;20211;-64
2021/09/17 00:36:29;;;;;;;25.93;21.67;;;18.10;99.90;;;;;;5031931;28;20234;-64
2021/09/17 00:38:55;;;;;;;24.20;20.98;;;18.00;99.90;;;;;;5031446;28;20206;-64
2021/09/17 00:41:22;;;;;;;26.40;22.08;;;18.00;99.90;;;;;;5031949;28;20213;-64
2021/09/17 00:43:50;;;;;;;23.40;20.95;;;18.00;99.90;;;;;;5019754;28;20670;-64
2021/09/17 00:46:17;;;;;;;25.27;20.83;;;18.00;99.90;;;;;;5031626;28;20206;-64
2021/09/17 00:48:44;;;;;;;24.23;19.92;;;18.00;99.90;;;;;;5032701;28;20218;-66
2021/09/17 00:51:11;;;;;;;24.27;20.08;;;18.00;99.90;;;;;;5036692;28;20222;-63
2021/09/17 00:53:38;;;;;;;27.17;22.05;;;18.00;99.90;;;;;;5042325;28;20591;-65
2021/09/17 00:56:05;;;;;;;24.30;21.70;;;17.90;99.90;;;;;;5031964;28;20207;-65
2021/09/17 00:58:32;;;;;;;24.60;21.20;;;17.90;99.90;;;;;;5032103;28;20241;-65
2021/09/17 01:01:01;;;;;;;24.88;21.30;;;17.90;99.90;;;;;;5032088;28;20199;-64
2021/09/17 01:03:29;;;;;;;24.75;20.98;;;17.90;99.90;;;;;;5023125;28;20211;-64
2021/09/17 01:05:55;;;;;;;25.13;22.42;;;17.90;99.90;;;;;;5031234;28;20256;-65
2021/09/17 01:08:23;;;;;;;23.83;20.70;;;17.90;99.90;;;;;;5032748;28;20217;-64
2021/09/17 01:10:50;;;;;;;22.95;20.30;;;17.80;99.90;;;;;;5031377;28;20229;-65
2021/09/17 01:13:18;;;;;;;28.20;21.42;;;17.80;99.90;;;;;;5041727;28;20679;-67
2021/09/17 01:15:45;;;;;;;22.65;20.08;;;17.80;99.90;;;;;;5032958;28;20242;-64
2021/09/17 01:18:13;;;;;;;24.98;20.75;;;17.80;99.90;;;;;;5033716;28;20210;-64
2021/09/17 01:20:40;;;;;;;22.67;19.83;;;17.80;99.90;;;;;;5038277;28;20207;-65
2021/09/17 01:23:08;;;;;;;22.73;18.90;;;17.80;99.90;;;;;;5031298;28;20222;-65
2021/09/17 01:25:35;;;;;;;25.07;19.63;;;17.80;99.90;;;;;;5031255;28;20210;-64
2021/09/17 01:28:02;;;;;;;19.95;17.92;;;17.80;99.90;;;;;;5034386;28;20234;-64
2021/09/17 01:30:29;;;;;;;29.40;19.33;;;17.80;99.90;;;;;;5039509;28;20245;-65
2021/09/17 01:32:55;;;;;;;24.65;19.27;;;17.80;99.90;;;;;;5034959;28;20217;-64
2021/09/17 01:35:24;;;;;;;20.17;17.77;;;17.80;99.90;;;;;;5032889;28;20211;-65
2021/09/17 01:37:51;;;;;;;20.83;17.02;;;17.70;99.90;;;;;;5034106;28;20643;-63
2021/09/17 01:40:19;;;;;;;20.70;17.67;;;17.70;99.90;;;;;;5033171;28;20214;-65
2021/09/17 01:42:47;;;;;;;18.80;16.80;;;17.70;99.90;;;;;;5034669;28;20226;-65
2021/09/17 01:45:14;;;;;;;20.30;18.00;;;17.70;99.90;;;;;;5034186;28;20202;-66
2021/09/17 01:47:41;;;;;;;18.80;16.02;;;17.70;99.90;;;;;;5040875;28;20221;-66
2021/09/17 01:50:10;;;;;;;18.77;16.83;;;17.70;99.90;;;;;;5033756;28;20203;-65
2021/09/17 01:52:36;;;;;;;18.53;15.97;;;17.70;99.90;;;;;;5036559;28;20581;-64
2021/09/17 01:55:04;;;;;;;16.80;14.77;;;17.70;99.90;;;;;;5042550;28;20209;-64
2021/09/17 01:57:32;;;;;;;20.80;16.10;;;17.80;99.90;;;;;;5048041;28;20214;-66
2021/09/17 01:59:59;;;;;;;18.98;15.80;;;17.70;99.90;;;;;;5050535;28;20206;-65
2021/09/17 02:02:26;;;;;;;19.85;14.70;;;17.70;99.90;;;;;;5037301;28;20213;-64
2021/09/17 02:04:53;;;;;;;17.95;15.35;;;17.70;99.90;;;;;;5034460;28;20211;-64
2021/09/17 02:07:20;;;;;;;17.50;15.25;;;17.70;99.90;;;;;;5034099;28;20211;-65
2021/09/17 02:09:47;;;;;;;18.27;15.13;;;17.70;99.90;;;;;;5034709;28;20643;-65
2021/09/17 02:12:13;;;;;;;19.93;15.77;;;17.60;99.90;;;;;;5034033;28;20230;-65
2021/09/17 02:14:41;;;;;;;16.70;14.90;;;17.70;99.90;;;;;;5039615;28;20207;-65
2021/09/17 02:17:09;;;;;;;20.38;15.13;;;17.60;99.90;;;;;;5046144;28;20210;-65
2021/09/17 02:19:36;;;;;;;18.27;16.25;;;17.60;99.90;;;;;;5033204;28;20217;-65
2021/09/17 02:22:03;;;;;;;17.65;15.75;;;17.60;99.90;;;;;;5033326;28;20207;-64
2021/09/17 02:24:30;;;;;;;18.50;16.52;;;17.50;99.90;;;;;;5034119;28;20218;-64
2021/09/17 02:26:57;;;;;;;19.60;15.97;;;17.50;99.90;;;;;;5033202;28;20328;-64
2021/09/17 02:29:23;;;;;;;21.27;17.15;;;17.50;99.90;;;;;;5033472;28;20215;-65
2021/09/17 02:31:52;;;;;;;18.73;16.83;;;17.50;99.90;;;;;;5033541;28;20577;-65
2021/09/17 02:34:18;;;;;;;20.43;18.20;;;17.40;99.90;;;;;;5033765;28;20218;-65
2021/09/17 02:36:45;;;;;;;19.77;17.70;;;17.40;99.90;;;;;;5037698;28;20230;-65
2021/09/17 02:39:14;;;;;;;19.90;17.80;;;17.40;99.90;;;;;;5033064;28;20211;-65
2021/09/17 02:41:40;;;;;;;19.10;16.87;;;17.30;99.90;;;;;;5036470;28;20288;-66
2021/09/17 02:44:07;;;;;;;21.90;17.67;;;17.30;99.90;;;;;;5043645;28;20662;-65
2021/09/17 02:46:34;;;;;;;20.33;16.30;;;17.30;99.90;;;;;;5036817;28;20206;-63
2021/09/17 02:49:04;;;;;;;18.07;16.17;;;17.30;99.90;;;;;;5033134;28;20691;-65
2021/09/17 02:51:30;;;;;;;20.83;17.40;;;17.30;99.90;;;;;;5033190;28;20222;-65
2021/09/17 02:53:58;;;;;;;23.47;17.13;;;17.20;99.90;;;;;;5033149;28;20225;-64
2021/09/17 02:56:25;;;;;;;17.40;15.50;;;17.20;99.90;;;;;;5037414;28;20576;-65
2021/09/17 02:58:52;;;;;;;17.63;15.17;;;17.20;99.90;;;;;;5032417;28;20207;-65
2021/09/17 03:01:18;;;;;;;20.00;15.82;;;17.20;99.90;;;;;;5032555;28;20211;-65
2021/09/17 03:03:45;;;;;;;17.90;15.23;;;17.20;99.90;;;;;;5042867;28;20218;-65
2021/09/17 03:06:13;;;;;;;19.00;15.48;;;17.20;99.90;;;;;;5033521;28;20210;-65
2021/09/17 03:08:40;;;;;;;17.03;13.90;;;17.10;99.90;;;;;;5032853;28;20218;-64
2021/09/17 03:11:07;;;;;;;14.97;13.37;;;17.10;99.90;;;;;;5032689;28;20214;-65
2021/09/17 03:13:34;;;;;;;15.95;13.90;;;17.10;99.90;;;;;;5034015;28;20644;-63
2021/09/17 03:16:02;;;;;;;16.13;13.83;;;17.10;99.90;;;;;;5038205;28;20651;-66
2021/09/17 03:18:29;;;;;;;16.77;13.80;;;17.00;99.90;;;;;;5033148;28;20639;-65
2021/09/17 03:20:56;;;;;;;16.40;14.27;;;16.90;99.90;;;;;;5032640;28;20207;-64
2021/09/17 03:23:24;;;;;;;17.43;14.33;;;16.90;99.90;;;;;;5035255;28;20579;-63
2021/09/17 03:25:51;;;;;;;15.27;13.07;;;16.90;99.90;;;;;;5039528;28;20206;-64
2021/09/17 03:28:17;;;;;;;13.83;12.37;;;16.90;99.90;;;;;;5032873;28;20245;-65
2021/09/17 03:30:44;;;;;;;14.87;12.37;;;16.90;99.90;;;;;;5036248;28;20206;-64
2021/09/17 03:33:11;;;;;;;16.90;11.70;;;16.80;99.90;;;;;;5034682;28;20560;-65
2021/09/17 03:35:38;;;;;;;14.03;11.83;;;16.80;99.90;;;;;;5040712;28;20591;-64
2021/09/17 03:38:05;;;;;;;15.83;12.30;;;16.80;99.90;;;;;;5036704;28;20229;-64
2021/09/17 03:40:34;;;;;;;14.07;11.37;;;16.80;99.90;;;;;;5044059;28;20207;-66
2021/09/17 03:43:01;;;;;;;12.80;11.60;;;16.80;99.90;;;;;;5031722;28;20233;-65
2021/09/17 03:45:28;;;;;;;15.07;12.57;;;16.80;99.90;;;;;;5038790;28;20213;-64
2021/09/17 03:47:55;;;;;;;14.70;12.00;;;16.80;99.90;;;;;;5037488;28;20207;-65
2021/09/17 03:50:21;;;;;;;16.37;12.67;;;16.70;99.90;;;;;;5032176;28;20207;-64
2021/09/17 03:52:48;;;;;;;14.23;12.23;;;16.70;99.90;;;;;;5034480;28;20198;-65
2021/09/17 03:55:15;;;;;;;14.23;12.73;;;16.70;99.90;;;;;;5038180;28;20217;-64
2021/09/17 03:57:43;;;;;;;18.03;12.43;;;16.70;99.90;;;;;;5038874;28;20202;-65
2021/09/17 04:00:11;;;;;;;16.27;11.93;;;16.70;99.90;;;;;;5042609;28;20212;-65
2021/09/17 04:02:38;;;;;;;15.90;11.50;;;16.70;99.90;;;;;;5034374;28;20667;-65
2021/09/17 04:05:06;;;;;;;13.37;11.97;;;16.70;99.90;;;;;;5032820;28;20202;-64
2021/09/17 04:07:37;;;;;;;13.20;11.30;;;16.70;99.90;;;;;;5031957;28;20306;-64
2021/09/17 04:10:05;;;;;;;14.90;11.17;;;16.70;99.90;;;;;;5031651;28;20209;-64
2021/09/17 04:12:32;;;;;;;14.47;11.80;;;16.60;99.90;;;;;;5031477;28;20199;-64
2021/09/17 04:15:00;;;;;;;14.13;11.13;;;16.60;99.90;;;;;;5036984;28;20658;-64
2021/09/17 04:17:27;;;;;;;12.83;10.57;;;16.50;99.90;;;;;;5043041;28;20213;-65
2021/09/17 04:19:54;;;;;;;11.30;10.17;;;16.50;99.90;;;;;;5038560;28;20333;-65
2021/09/17 04:22:21;;;;;;;12.97;9.93;;;16.50;99.90;;;;;;5031422;28;20253;-65
2021/09/17 04:24:48;;;;;;;13.17;10.17;;;16.50;99.90;;;;;;5035775;28;20581;-65
2021/09/17 04:27:15;;;;;;;11.23;9.47;;;16.50;99.90;;;;;;5048732;28;20248;-64
2021/09/17 04:29:41;;;;;;;10.23;9.17;;;16.40;99.90;;;;;;5034646;28;20210;-65
2021/09/17 04:32:10;;;;;;;11.33;10.17;;;16.40;99.90;;;;;;5032076;28;20199;-65
2021/09/17 04:34:37;;;;;;;9.77;8.77;;;16.40;99.90;;;;;;5030292;28;20583;-64
2021/09/17 04:37:04;;;;;;;10.67;9.00;;;16.40;99.90;;;;;;5030934;28;20276;-64
2021/09/17 04:39:30;;;;;;;11.37;9.33;;;16.40;99.90;;;;;;5023728;28;20219;-64
2021/09/17 04:41:57;;;;;;;10.57;8.27;;;16.40;99.90;;;;;;5030899;28;20601;-65
2021/09/17 04:44:24;;;;;;;10.50;9.40;;;16.40;99.90;;;;;;5031471;28;20215;-65
2021/09/17 04:46:51;;;;;;;11.23;9.70;;;16.40;99.90;;;;;;5033329;28;20686;-64
2021/09/17 04:49:19;;;;;;;10.10;9.10;;;16.40;99.90;;;;;;5033372;28;20213;-65
2021/09/17 04:51:46;;;;;;;10.47;9.00;;;16.40;99.90;;;;;;5033880;28;20214;-64
2021/09/17 04:54:13;;;;;;;11.70;8.53;;;16.50;99.90;;;;;;5031142;28;20210;-65
2021/09/17 04:56:40;;;;;;;12.10;8.80;;;16.50;99.90;;;;;;5034366;28;21702;-65
2021/09/17 04:59:07;;;;;;;9.50;8.50;;;16.50;99.90;;;;;;5033903;28;20206;-64
2021/09/17 05:01:33;;;;;;;11.73;8.77;;;16.50;99.90;;;;;;5032351;28;20248;-65
2021/09/17 05:04:00;;;;;;;12.33;8.83;;;16.50;99.90;;;;;;5030636;28;20215;-63
2021/09/17 05:06:30;;;;;;;10.73;8.37;;;16.50;99.90;;;;;;5032582;28;20202;-63
2021/09/17 05:08:57;;;;;;;9.23;8.20;;;16.50;99.90;;;;;;5034207;28;20206;-65
2021/09/17 05:11:24;;;;;;;8.87;7.53;;;16.50;99.90;;;;;;5036586;28;20211;-65
2021/09/17 05:13:51;;;;;;;10.67;7.27;;;16.40;99.90;;;;;;5032392;28;20653;-64
2021/09/17 05:16:18;;;;;;;9.03;7.53;;;16.50;99.90;;;;;;5039579;28;20217;-65
2021/09/17 05:18:44;;;;;;;8.37;7.20;;;16.50;99.90;;;;;;5037087;28;20207;-65
2021/09/17 05:21:11;;;;;;;9.23;7.27;;;16.50;99.90;;;;;;5034460;28;20207;-65
2021/09/17 05:23:40;;;;;;;10.13;7.63;;;16.40;99.90;;;;;;5035326;28;20709;-65
2021/09/17 05:26:07;;;;;;;7.53;6.70;;;16.40;99.90;;;;;;5043683;28;20217;-66
2021/09/17 05:28:34;;;;;;;9.43;6.60;;;16.50;99.90;;;;;;5034855;28;20214;-66
2021/09/17 05:31:01;;;;;;;10.53;6.37;;;16.40;99.90;;;;;;5040951;28;20391;-67
2021/09/17 05:33:28;;;;;;;14.07;6.37;;;16.40;99.90;;;;;;5021263;28;20207;-66
2021/09/17 05:35:55;;;;;;;6.67;5.50;;;16.50;99.90;;;;;;5033542;28;20739;-66
2021/09/17 05:38:22;;;;;;;7.20;6.27;;;16.50;99.90;;;;;;5035798;28;20211;-66
2021/09/17 05:40:50;;;;;;;6.97;5.70;;;16.50;99.90;;;;;;5043308;28;20268;-67
2021/09/17 05:43:16;;;;;;;7.70;5.50;;;16.50;99.90;;;;;;5033714;28;20222;-66
2021/09/17 05:45:43;;;;;;;6.50;4.73;;;16.50;99.90;;;;;;5044694;28;20207;-67
2021/09/17 05:48:10;;;;;;;8.37;4.40;;;16.50;99.90;;;;;;5033904;28;20202;-66
2021/09/17 05:50:37;;;;;;;6.57;4.57;;;16.50;99.90;;;;;;5033784;28;20221;-64
2021/09/17 05:53:04;;;;;;;4.77;4.27;;;16.50;99.90;;;;;;5034031;28;20202;-65
2021/09/17 05:55:30;;;;;;;5.07;4.00;;;16.40;99.90;;;;;;5033380;28;20682;-66
2021/09/17 05:57:58;;;;;;;8.17;4.33;;;16.30;99.90;;;;;;5034326;28;20665;-64
2021/09/17 06:00:26;;;;;;;5.87;3.90;;;16.30;99.90;;;;;;5034034;28;20292;-64
2021/09/17 06:02:52;;;;;;;4.60;3.87;;;16.30;99.90;;;;;;5040177;28;20219;-64
2021/09/17 06:05:19;;;;;;;7.23;4.33;;;16.20;99.90;;;;;;5034512;28;20284;-65
2021/09/17 06:07:47;;;;;;;6.23;4.10;;;16.20;99.90;;;;;;5039030;28;20234;-64
2021/09/17 06:10:15;;;;;;;7.43;5.00;;;16.20;99.90;;;;;;5036075;28;20209;-64
2021/09/17 06:12:43;;;;;;;6.57;5.10;;;16.20;99.90;;;;;;5033918;28;20257;-65
2021/09/17 06:15:12;;;;;;;7.60;5.63;;;16.10;99.90;;;;;;5033964;28;20206;-65
2021/09/17 06:17:40;;;;;;;4.80;4.30;;;16.10;99.90;;;;;;5033272;28;20214;-67
2021/09/17 06:20:09;;;;;;;6.10;4.83;;;16.10;99.90;;;;;;5033377;28;20927;-67
2021/09/17 06:22:39;;;;;;;6.57;5.00;;;16.10;99.90;;;;;;5033834;28;20314;-66
2021/09/17 06:25:07;;;;;;;6.17;5.27;;;16.00;99.90;;;;;;5042632;28;20209;-67
2021/09/17 06:27:33;;;;;;;8.03;5.57;;;16.10;99.90;;;;;;5043685;28;20230;-65
2021/09/17 06:30:00;;;;;;;7.83;5.60;;;16.10;99.90;;;;;;5033229;28;20206;-63
2021/09/17 06:32:28;;;;;;;8.20;5.70;;;16.20;99.90;;;;;;5035174;28;20676;-65
2021/09/17 06:34:58;;;;;;;8.73;5.87;;;16.20;99.90;;;;;;5036457;28;20225;-64
2021/09/17 06:37:25;;;;;;;6.63;5.77;;;16.30;99.90;;;;;;5033656;28;20257;-66
2021/09/17 06:39:52;;;;;;;6.67;5.83;;;16.30;99.90;;;;;;5044086;28;20656;-64
2021/09/17 06:42:18;;;;;;;6.80;5.90;;;16.30;99.90;;;;;;5041826;28;20225;-66
2021/09/17 06:44:45;;;;;;;9.50;6.60;;;16.30;99.90;;;;;;5047120;28;20232;-66
2021/09/17 06:47:12;;;;;;;7.27;6.57;;;16.30;99.90;;;;;;5043642;28;20206;-64
2021/09/17 06:49:41;;;;;;;8.87;6.50;;;16.40;99.90;;;;;;5034113;28;20214;-66
2021/09/17 06:52:08;;;;;;;10.40;7.23;;;16.40;99.90;;;;;;5033115;28;20217;-66
2021/09/17 06:54:35;;;;;;;8.07;6.67;;;16.40;99.90;;;;;;5034789;28;20751;-67
2021/09/17 06:57:02;;;;;;;7.57;6.67;;;16.40;99.90;;;;;;5027999;28;20207;-64
2021/09/17 06:59:28;;;;;;;8.00;6.87;;;16.30;99.90;;;;;;5039067;28;20225;-65
2021/09/17 07:01:55;;;;;;;10.03;6.93;;;16.30;99.90;;;;;;5029227;28;20205;-64
2021/09/17 07:04:22;;;;;;;9.10;6.33;;;16.30;99.90;;;;;;5027329;28;20734;-66
2021/09/17 07:06:50;;;;;;;7.93;7.23;;;16.30;99.90;;;;;;5024160;28;20206;-65
2021/09/17 07:09:17;;;;;;;8.13;7.33;;;16.30;99.90;;;;;;5036073;28;20675;-64
2021/09/17 07:11:44;;;;;;;12.60;7.50;;;16.30;99.90;;;;;;5037939;28;20206;-64
2021/09/17 07:14:10;;;;;;;8.60;6.87;;;16.30;99.90;;;;;;5031000;28;20209;-65
2021/09/17 07:16:39;;;;;;;9.07;7.30;;;16.30;99.90;;;;;;5032661;28;20215;-65
2021/09/17 07:19:06;;;;;;;8.37;7.33;;;16.40;99.90;;;;;;5015607;28;20210;-64
2021/09/17 07:21:33;;;;;;;11.90;7.73;;;16.40;99.90;;;;;;5033794;28;20670;-65
2021/09/17 07:24:01;;;;;;;8.30;7.03;;;16.40;99.90;;;;;;5033049;28;20222;-66
2021/09/17 07:26:28;;;;;;;8.17;7.20;;;16.40;99.90;;;;;;5033142;28;20241;-66
2021/09/17 07:28:55;;;;;;;9.40;7.27;;;16.50;99.90;;;;;;5025070;28;20321;-64
2021/09/17 07:31:22;;;;;;;10.47;8.40;;;16.50;99.90;;;;;;5033574;28;20210;-67
2021/09/17 07:33:50;;;;;;;9.50;8.47;;;16.60;99.90;;;;;;5033445;28;20670;-66
2021/09/17 07:36:16;;;;;;;9.70;8.70;;;16.70;99.90;;;;;;5030703;28;20239;-65
2021/09/17 07:38:43;;;;;;;11.60;8.23;;;16.70;99.90;;;;;;5028642;28;20218;-65
2021/09/17 07:41:11;;;;;;;12.17;9.07;;;16.70;99.90;;;;;;5032741;28;20222;-64
2021/09/17 07:43:38;;;;;;;10.13;8.47;;;16.80;99.90;;;;;;5033382;28;20564;-65
2021/09/17 07:46:06;;;;;;;11.60;9.53;;;16.80;99.90;;;;;;5030492;28;20651;-66
2021/09/17 07:48:33;;;;;;;13.10;11.67;;;17.10;99.90;;;;;;5031267;28;20265;-66
2021/09/17 07:50:59;;;;;;;11.80;10.60;;;17.00;99.90;;;;;;5033049;28;20294;-64
2021/09/17 07:53:26;;;;;;;12.20;10.90;;;17.00;99.90;;;;;;5034252;28;20206;-64
2021/09/17 07:55:53;;;;;;;12.53;10.63;;;17.00;99.90;;;;;;5032625;28;20210;-65
2021/09/17 07:58:21;;;;;;;11.03;10.03;;;17.00;99.90;;;;;;5033532;28;20647;-65
2021/09/17 08:00:48;;;;;;;12.27;10.53;;;17.00;99.90;;;;;;5031879;28;20209;-65
2021/09/17 08:03:15;;;;;;;15.10;11.30;;;17.00;99.90;;;;;;5031885;28;20260;-66
2021/09/17 08:05:42;;;;;;;13.33;10.90;;;17.00;99.90;;;;;;5031957;28;20523;-65
2021/09/17 08:08:09;;;;;;;11.52;9.20;;;17.10;99.90;;;;;;5031414;28;20237;-66
2021/09/17 08:10:36;;;;;;;11.40;10.03;;;17.20;99.90;;;;;;5031185;28;20265;-66
2021/09/17 08:13:03;;;;;;;12.17;10.87;;;17.20;99.90;;;;;;5045582;28;20202;-65
2021/09/17 08:15:31;;;;;;;13.60;10.53;;;17.20;99.90;;;;;;5034587;28;20621;-65
2021/09/17 08:17:58;;;;;;;11.80;10.00;;;17.30;99.90;;;;;;5035954;28;20213;-65
2021/09/17 08:20:25;;;;;;;11.47;10.27;;;17.30;99.90;;;;;;5022182;28;20234;-65
2021/09/17 08:22:52;;;;;;;11.43;10.03;;;17.30;99.90;;;;;;5032225;28;20227;-64
2021/09/17 08:25:19;;;;;;;12.37;10.70;;;17.30;99.90;;;;;;5040581;28;20930;-65
2021/09/17 08:27:46;;;;;;;11.97;10.20;;;17.30;99.90;;;;;;5031246;28;20238;-66
2021/09/17 08:30:14;;;;;;;11.30;9.70;;;17.30;99.90;;;;;;5031234;28;20210;-66
2021/09/17 08:32:42;;;;;;;12.83;10.67;;;17.30;99.90;;;;;;5034416;28;20210;-65
2021/09/17 08:35:10;;;;;;;12.18;10.75;;;17.40;99.90;;;;;;5030663;28;20585;-69
2021/09/17 08:37:37;;;;;;;13.37;11.97;;;17.40;99.90;;;;;;5023754;28;20695;-69
2021/09/17 08:40:06;;;;;;;14.53;12.47;;;17.40;99.90;;;;;;5030453;28;20222;-70
2021/09/17 08:42:33;;;;;;;13.95;11.70;;;17.30;99.90;;;;;;5029347;28;20210;-70
2021/09/17 08:45:00;;;;;;;14.13;12.73;;;17.30;99.90;;;;;;5032446;28;20210;-69
2021/09/17 08:47:26;;;;;;;16.53;14.87;;;17.20;99.90;;;;;;5018028;28;20215;-70
2021/09/17 08:49:55;;;;;;;16.67;14.60;;;17.10;99.90;;;;;;5033376;28;20214;-67
2021/09/17 08:52:21;;;;;;;16.20;14.50;;;17.10;99.90;;;;;;5049784;28;20206;-66
2021/09/17 08:54:48;;;;;;;23.97;20.07;;;17.10;99.90;;;;;;5036807;28;20207;-66
2021/09/17 08:57:15;;;;;;;23.58;21.08;;;17.10;99.90;;;;;;5035579;28;20599;-67
2021/09/17 08:59:43;;;;;;;24.93;22.23;;;17.00;99.90;;;;;;5039485;28;20689;-67
2021/09/17 09:02:24;;;;;;;25.37;22.67;;;17.10;99.90;;;;;;5035460;28;20348;-67
2021/09/17 09:04:57;;;;;;;26.47;23.07;;;17.00;99.90;;;;;;5035239;28;20226;-67
2021/09/17 09:07:29;;;;;;;28.77;21.23;;;17.10;99.90;;;;;;5043128;28;20205;-68
2021/09/17 09:09:56;;;;;;;26.03;22.37;;;17.10;99.90;;;;;;5042834;28;20206;-68
2021/09/17 09:12:25;;;;;;;25.75;22.33;;;17.10;99.90;;;;;;5041646;28;20272;-69
2021/09/17 09:15:12;;;;;;;24.27;21.20;;;17.10;99.90;;;;;;5034893;28;20617;-68
2021/09/17 09:17:39;;;;;;;25.10;22.03;;;17.20;99.90;;;;;;5043534;28;20315;-69
2021/09/17 09:20:27;;;;;;;23.70;21.13;;;17.20;99.90;;;;;;5036245;28;20260;-68
2021/09/17 09:23:14;;;;;;;27.17;23.52;;;17.40;99.90;;;;;;5040303;28;20205;-68
2021/09/17 09:25:56;;;;;;;25.97;23.17;;;17.40;99.90;;;;;;5035562;28;20190;-68
2021/09/17 09:28:25;;;;;;;25.10;22.53;;;17.60;99.90;;;;;;5033937;28;20691;-68
2021/09/17 09:30:53;;;;;;;27.67;23.60;;;17.70;99.90;;;;;;5038652;28;20249;-67
2021/09/17 09:33:31;;;;;;;25.98;23.27;;;17.80;99.90;;;;;;5035215;28;20233;-67
2021/09/17 09:36:08;;;;;;;27.83;23.77;;;17.90;99.90;;;;;;5034771;28;20237;-67
2021/09/17 09:38:41;;;;;;;27.20;24.02;;;18.00;99.90;;;;;;5035603;28;20205;-67
2021/09/17 09:41:11;;;;;;;27.48;24.65;;;18.00;99.90;;;;;;5034798;28;20206;-67
2021/09/17 09:43:40;;;;;;;28.75;25.67;;;18.00;99.90;;;;;;5033490;28;20218;-67
2021/09/17 09:46:34;;;;;;;28.48;25.52;;;18.00;99.90;;;;;;5034641;28;20271;-68
2021/09/17 09:49:18;;;;;;;26.77;23.98;;;18.00;99.90;;;;;;5015637;28;20565;-67
2021/09/17 09:52:01;;;;;;;27.17;24.42;;;17.90;99.90;;;;;;5033680;28;20719;-67
2021/09/17 09:54:30;;;;;;;27.60;24.73;;;17.90;99.90;;;;;;5036253;28;20213;-67
2021/09/17 09:56:58;;;;;;;28.30;24.23;;;17.90;99.90;;;;;;5035784;28;20679;-67
2021/09/17 09:59:27;;;;;;;27.45;24.52;;;17.90;99.90;;;;;;5031653;28;20211;-67
2021/09/17 10:01:55;;;;;;;27.88;24.80;;;17.90;99.90;;;;;;5034887;28;20234;-67
2021/09/17 10:04:23;;;;;;;29.23;25.75;;;17.90;99.90;;;;;;5042918;28;20222;-67
2021/09/17 10:07:04;;;;;;;28.70;25.80;;;17.90;99.90;;;;;;5034898;28;20209;-68
2021/09/17 10:09:31;;;;;;;26.73;24.02;;;17.80;99.90;;;;;;5040166;28;20233;-67
2021/09/17 10:11:59;;;;;;;28.42;25.50;;;17.80;99.90;;;;;;5038670;28;20211;-67
2021/09/17 10:14:27;;;;;;;27.85;25.05;;;17.80;99.90;;;;;;5040481;28;20273;-68
2021/09/17 10:16:56;;;;;;;28.10;25.08;;;17.80;99.90;;;;;;5039740;28;20203;-67
2021/09/17 10:19:23;;;;;;;28.60;25.52;;;17.80;99.90;;;;;;5031944;28;20206;-67
2021/09/17 10:21:52;;;;;;;29.98;26.83;;;17.80;99.90;;;;;;5049315;28;20220;-67
2021/09/17 10:24:41;;;;;;;33.15;25.98;;;17.80;99.90;;;;;;5034353;28;20325;-66
2021/09/17 10:27:12;;;;;;;27.23;24.38;;;17.80;99.90;;;;;;5032069;28;20241;-67
2021/09/17 10:29:40;;;;;;;29.23;26.10;;;17.80;99.90;;;;;;5039828;28;20205;-66
2021/09/17 10:32:28;;;;;;;28.75;25.25;;;17.80;99.90;;;;;;5031225;28;20203;-67
2021/09/17 10:35:03;;;;;;;25.42;22.95;;;17.90;99.90;;;;;;5030759;28;20195;-67
2021/09/17 10:37:52;;;;;;;25.92;23.33;;;17.90;99.90;;;;;;5033226;28;20233;-68
2021/09/17 10:40:34;;;;;;;25.63;22.92;;;18.00;99.90;;;;;;5039833;28;20211;-67
2021/09/17 10:43:19;;;;;;;22.77;20.48;;;18.10;99.90;;;;;;5033569;28;20202;-66
2021/09/17 10:45:47;;;;;;;24.52;21.80;;;18.20;99.90;;;;;;5033390;28;20318;-67
2021/09/17 10:48:15;;;;;;;23.27;20.88;;;18.40;99.90;;;;;;5032932;28;20206;-67
2021/09/17 10:50:51;;;;;;;24.42;20.63;;;18.60;99.90;;;;;;5032148;28;20211;-65
2021/09/17 10:54:05;;;;;;;21.73;19.63;;;18.90;99.90;;;;;;5038849;28;20212;-67
2021/09/17 10:57:10;;;;;;;21.63;19.40;;;19.10;99.90;;;;;;5022842;28;20206;-66
2021/09/17 10:59:47;;;;;;;21.63;19.55;;;19.30;99.90;;;;;;5036883;28;20255;-66
2021/09/17 11:02:15;;;;;;;23.35;20.98;;;19.30;99.90;;;;;;5029679;28;21061;-68
2021/09/17 11:04:45;;;;;;;21.33;19.30;;;19.40;99.90;;;;;;5043657;28;20789;-68
2021/09/17 11:07:33;;;;;;;20.70;18.75;;;19.50;99.90;;;;;;5033592;28;20198;-68
2021/09/17 11:10:01;;;;;;;20.33;18.33;;;19.70;99.90;;;;;;5036313;28;20203;-66
2021/09/17 11:12:31;;;;;;;20.67;18.58;;;19.80;99.90;;;;;;5037579;28;20662;-67
2021/09/17 11:15:05;;;;;;;19.92;17.95;;;19.90;99.90;;;;;;5031740;28;20209;-68
2021/09/17 11:17:40;;;;;;;19.35;17.35;;;19.90;99.90;;;;;;5026324;28;20305;-68
2021/09/17 11:20:10;;;;;;;18.95;17.05;;;19.90;99.90;;;;;;5025606;28;20198;-67
2021/09/17 11:22:55;;;;;;;18.92;17.13;;;19.90;99.90;;;;;;5033813;28;20199;-67
2021/09/17 11:25:24;;;;;;;18.83;16.88;;;19.90;99.90;;;;;;5041094;28;20217;-68
2021/09/17 11:27:56;;;;;;;16.02;14.50;;;19.90;99.90;;;;;;5036301;28;20632;-68
2021/09/17 11:30:24;;;;;;;15.48;14.07;;;19.80;99.90;;;;;;5032839;28;20227;-70
2021/09/17 11:32:52;;;;;;;14.15;12.65;;;19.80;99.90;;;;;;5034788;28;20332;-66
2021/09/17 11:35:19;;;;;;;13.43;12.13;;;19.90;99.90;;;;;;5043131;28;20198;-66
2021/09/17 11:37:51;;;;;;;13.70;12.30;;;20.00;99.90;;;;;;5036870;28;20228;-66
2021/09/17 11:40:18;;;;;;;13.60;12.45;;;20.10;99.90;;;;;;5020156;28;20210;-67
2021/09/17 11:42:45;;;;;;;13.93;12.18;;;20.20;99.90;;;;;;5036125;28;20689;-66
2021/09/17 11:45:15;;;;;;;13.02;11.73;;;20.20;99.90;;;;;;5032197;28;20218;-66
2021/09/17 11:47:47;;;;;;;12.13;11.02;;;20.30;99.90;;;;;;5038830;28;20206;-66
2021/09/17 11:50:15;;;;;;;10.48;9.15;;;21.00;99.90;;;;;;5040419;28;20229;-67
2021/09/17 11:52:44;;;;;;;11.90;9.60;;;20.30;99.90;;;;;;5031833;28;20206;-67
2021/09/17 11:55:13;;;;;;;9.95;9.05;;;20.20;99.90;;;;;;5032578;28;20203;-65
2021/09/17 11:57:42;;;;;;;9.13;8.32;;;20.20;99.90;;;;;;5031390;28;20205;-67
2021/09/17 12:00:11;;;;;;;9.80;9.00;;;20.10;99.90;;;;;;5031843;28;20647;-65
2021/09/17 12:02:39;;;;;;;8.25;7.65;;;20.20;99.90;;;;;;5042515;28;20640;-66
2021/09/17 12:05:09;;;;;;;10.13;8.07;;;20.20;99.90;;;;;;5034536;28;20221;-65
2021/09/17 12:07:37;;;;;;;8.68;7.75;;;20.20;99.90;;;;;;5033727;28;20619;-66
2021/09/17 12:10:09;;;;;;;7.60;6.90;;;20.30;99.90;;;;;;5039560;28;20217;-66
2021/09/17 12:12:37;;;;;;;8.20;7.50;;;20.40;99.90;;;;;;5031829;28;20218;-67
2021/09/17 12:15:06;;;;;;;8.02;7.32;;;20.50;99.90;;;;;;5033004;28;20210;-66
2021/09/17 12:17:33;;;;;;;8.27;7.57;;;20.60;99.90;;;;;;5032091;28;20233;-66
2021/09/17 12:20:05;;;;;;;8.57;7.78;;;20.60;99.90;;;;;;5031837;28;20579;-66
2021/09/17 12:22:36;;;;;;;7.97;7.28;;;20.60;99.90;;;;;;5032568;28;20207;-66
2021/09/17 12:25:09;;;;;;;9.07;7.20;;;20.70;99.90;;;;;;5029449;28;20679;-65
2021/09/17 12:27:36;;;;;;;7.22;6.63;;;20.70;99.90;;;;;;5037765;28;20238;-67
2021/09/17 12:30:07;;;;;;;6.50;5.90;;;20.80;99.90;;;;;;5043249;28;20309;-66
2021/09/17 12:32:34;;;;;;;7.68;7.07;;;20.90;99.90;;;;;;5038137;28;20211;-65
2021/09/17 12:35:08;;;;;;;8.43;7.63;;;20.90;99.90;;;;;;5040647;28;20198;-67
2021/09/17 12:37:36;;;;;;;6.80;6.22;;;21.00;99.90;;;;;;5040830;28;20549;-63
2021/09/17 12:40:14;;;;;;;7.00;6.47;;;21.20;99.90;;;;;;5035674;28;20669;-66
2021/09/17 12:42:42;;;;;;;6.80;6.18;;;21.30;99.90;;;;;;5040199;28;20206;-64